sensor_id;sensor_type;location;lat;lon;timestamp;temperature;humidity
42979;DHT22;28616;44.746;19.678;2023-07-02T00:01:47;21.10;99.90
42979;DHT22;28616;44.746;19.678;2023-07-02T00:04:14;21.10;99.90
42979;DHT22;28616;44.746;19.678;2023-07-02T00:06:45;21.00;99.90
42979;DHT22;28616;44.746;19.678;2023-07-02T00:09:11;21.00;99.90
42979;DHT22;28616;44.746;19.678;2023-07-02T00:11:42;20.90;99.90
42979;DHT22;28616;44.746;19.678;2023-07-02T00:14:09;20.90;99.90
42979;DHT22;28616;44.746;19.678;2023-07-02T00:16:38;20.90;99.90
42979;DHT22;28616;44.746;19.678;2023-07-02T00:19:04;20.80;99.90
42979;DHT22;28616;44.746;19.678;2023-07-02T00:21:30;20.80;99.90
42979;DHT22;28616;44.746;19.678;2023-07-02T00:23:59;20.80;99.90
42979;DHT22;28616;44.746;19.678;2023-07-02T00:26:26;20.80;99.90
42979;DHT22;28616;44.746;19.678;2023-07-02T00:28:53;20.80;99.90
42979;DHT22;28616;44.746;19.678;2023-07-02T00:31:20;20.70;99.90
42979;DHT22;28616;44.746;19.678;2023-07-02T00:33:45;20.70;99.90
42979;DHT22;28616;44.746;19.678;2023-07-02T00:36:13;20.70;99.90
42979;DHT22;28616;44.746;19.678;2023-07-02T00:38:44;20.70;99.90
42979;DHT22;28616;44.746;19.678;2023-07-02T00:41:11;20.70;99.90
42979;DHT22;28616;44.746;19.678;2023-07-02T00:43:37;20.60;99.90
42979;DHT22;28616;44.746;19.678;2023-07-02T00:46:11;20.60;99.90
42979;DHT22;28616;44.746;19.678;2023-07-02T00:48:39;20.50;99.90
42979;DHT22;28616;44.746;19.678;2023-07-02T00:51:05;20.50;99.90
42979;DHT22;28616;44.746;19.678;2023-07-02T00:53:31;20.50;99.90
42979;DHT22;28616;44.746;19.678;2023-07-02T00:55:58;20.60;99.90
42979;DHT22;28616;44.746;19.678;2023-07-02T00:58:24;20.60;99.90
42979;DHT22;28616;44.746;19.678;2023-07-02T01:00:49;20.60;99.90
42979;DHT22;28616;44.746;19.678;2023-07-02T01:03:15;20.60;99.90
42979;DHT22;28616;44.746;19.678;2023-07-02T01:05:41;20.60;99.90
42979;DHT22;28616;44.746;19.678;2023-07-02T01:08:08;20.60;99.90
42979;DHT22;28616;44.746;19.678;2023-07-02T01:10:36;20.60;99.90
42979;DHT22;28616;44.746;19.678;2023-07-02T01:13:09;20.60;99.90
42979;DHT22;28616;44.746;19.678;2023-07-02T01:15:37;20.60;99.90
42979;DHT22;28616;44.746;19.678;2023-07-02T01:18:05;20.60;99.90
42979;DHT22;28616;44.746;19.678;2023-07-02T01:20:31;20.60;99.90
42979;DHT22;28616;44.746;19.678;2023-07-02T01:22:58;20.50;99.90
42979;DHT22;28616;44.746;19.678;2023-07-02T01:25:28;20.60;99.90
42979;DHT22;28616;44.746;19.678;2023-07-02T01:27:56;20.50;99.90
42979;DHT22;28616;44.746;19.678;2023-07-02T01:30:24;20.50;99.90
42979;DHT22;28616;44.746;19.678;2023-07-02T01:32:51;20.60;99.90
42979;DHT22;28616;44.746;19.678;2023-07-02T01:35:17;20.50;99.90
42979;DHT22;28616;44.746;19.678;2023-07-02T01:37:43;20.50;99.90
42979;DHT22;28616;44.746;19.678;2023-07-02T01:40:09;20.50;99.90
42979;DHT22;28616;44.746;19.678;2023-07-02T01:42:36;20.50;99.90
42979;DHT22;28616;44.746;19.678;2023-07-02T01:45:02;20.50;99.90
42979;DHT22;28616;44.746;19.678;2023-07-02T01:47:28;20.50;99.90
42979;DHT22;28616;44.746;19.678;2023-07-02T01:49:53;20.50;99.90
42979;DHT22;28616;44.746;19.678;2023-07-02T01:52:19;20.50;99.90
42979;DHT22;28616;44.746;19.678;2023-07-02T01:54:45;20.50;99.90
42979;DHT22;28616;44.746;19.678;2023-07-02T01:57:12;20.50;99.90
42979;DHT22;28616;44.746;19.678;2023-07-02T01:59:37;20.50;99.90
42979;DHT22;28616;44.746;19.678;2023-07-02T02:02:03;20.50;99.90
42979;DHT22;28616;44.746;19.678;2023-07-02T02:04:29;20.50;99.90
42979;DHT22;28616;44.746;19.678;2023-07-02T02:06:55;20.50;99.90
42979;DHT22;28616;44.746;19.678;2023-07-02T02:09:21;20.50;99.90
42979;DHT22;28616;44.746;19.678;2023-07-02T02:11:48;20.50;99.90
42979;DHT22;28616;44.746;19.678;2023-07-02T02:14:15;20.50;99.90
42979;DHT22;28616;44.746;19.678;2023-07-02T02:16:42;20.40;99.90
42979;DHT22;28616;44.746;19.678;2023-07-02T02:19:11;20.40;99.90
42979;DHT22;28616;44.746;19.678;2023-07-02T02:21:37;20.40;99.90
42979;DHT22;28616;44.746;19.678;2023-07-02T02:24:02;20.40;99.90
42979;DHT22;28616;44.746;19.678;2023-07-02T02:26:29;20.40;99.90
42979;DHT22;28616;44.746;19.678;2023-07-02T02:28:55;20.30;99.90
42979;DHT22;28616;44.746;19.678;2023-07-02T02:31:21;20.30;99.90
42979;DHT22;28616;44.746;19.678;2023-07-02T02:33:46;20.40;99.90
42979;DHT22;28616;44.746;19.678;2023-07-02T02:36:12;20.30;99.90
42979;DHT22;28616;44.746;19.678;2023-07-02T02:38:38;20.30;99.90
42979;DHT22;28616;44.746;19.678;2023-07-02T02:41:04;20.40;99.90
42979;DHT22;28616;44.746;19.678;2023-07-02T02:43:29;20.30;99.90
42979;DHT22;28616;44.746;19.678;2023-07-02T02:45:55;20.30;99.90
42979;DHT22;28616;44.746;19.678;2023-07-02T02:48:21;20.20;99.90
42979;DHT22;28616;44.746;19.678;2023-07-02T02:50:50;20.20;99.90
42979;DHT22;28616;44.746;19.678;2023-07-02T02:53:16;20.20;99.90
42979;DHT22;28616;44.746;19.678;2023-07-02T02:55:42;20.20;99.90
42979;DHT22;28616;44.746;19.678;2023-07-02T02:58:07;20.20;99.90
42979;DHT22;28616;44.746;19.678;2023-07-02T03:00:33;20.20;99.90
42979;DHT22;28616;44.746;19.678;2023-07-02T03:02:59;20.30;99.90
42979;DHT22;28616;44.746;19.678;2023-07-02T03:05:25;20.30;99.90
42979;DHT22;28616;44.746;19.678;2023-07-02T03:07:51;20.30;99.90
42979;DHT22;28616;44.746;19.678;2023-07-02T03:10:17;20.20;99.90
42979;DHT22;28616;44.746;19.678;2023-07-02T03:12:43;20.20;99.90
42979;DHT22;28616;44.746;19.678;2023-07-02T03:15:09;20.20;99.90
42979;DHT22;28616;44.746;19.678;2023-07-02T03:17:36;20.20;99.90
42979;DHT22;28616;44.746;19.678;2023-07-02T03:20:02;20.10;99.90
42979;DHT22;28616;44.746;19.678;2023-07-02T03:22:29;20.10;99.90
42979;DHT22;28616;44.746;19.678;2023-07-02T03:24:55;20.10;99.90
42979;DHT22;28616;44.746;19.678;2023-07-02T03:27:21;20.10;99.90
42979;DHT22;28616;44.746;19.678;2023-07-02T03:29:47;20.10;99.90
42979;DHT22;28616;44.746;19.678;2023-07-02T03:32:12;20.00;99.90
42979;DHT22;28616;44.746;19.678;2023-07-02T03:34:38;20.00;99.90
42979;DHT22;28616;44.746;19.678;2023-07-02T03:37:04;20.00;99.90
42979;DHT22;28616;44.746;19.678;2023-07-02T03:39:30;20.00;99.90
42979;DHT22;28616;44.746;19.678;2023-07-02T03:41:56;20.00;99.90
42979;DHT22;28616;44.746;19.678;2023-07-02T03:44:21;20.00;99.90
42979;DHT22;28616;44.746;19.678;2023-07-02T03:46:47;19.90;99.90
42979;DHT22;28616;44.746;19.678;2023-07-02T03:49:13;19.90;99.90
42979;DHT22;28616;44.746;19.678;2023-07-02T03:51:39;19.80;99.90
42979;DHT22;28616;44.746;19.678;2023-07-02T03:54:04;19.80;99.90
42979;DHT22;28616;44.746;19.678;2023-07-02T03:56:30;19.80;99.90
42979;DHT22;28616;44.746;19.678;2023-07-02T03:58:56;19.80;99.90
42979;DHT22;28616;44.746;19.678;2023-07-02T04:01:22;19.80;99.90
42979;DHT22;28616;44.746;19.678;2023-07-02T04:03:49;19.80;99.90
42979;DHT22;28616;44.746;19.678;2023-07-02T04:06:16;19.80;99.90
42979;DHT22;28616;44.746;19.678;2023-07-02T04:08:42;19.70;99.90
42979;DHT22;28616;44.746;19.678;2023-07-02T04:11:08;19.70;99.90
42979;DHT22;28616;44.746;19.678;2023-07-02T04:13:34;19.70;99.90
42979;DHT22;28616;44.746;19.678;2023-07-02T04:16:00;19.70;99.90
42979;DHT22;28616;44.746;19.678;2023-07-02T04:18:25;19.70;99.90
42979;DHT22;28616;44.746;19.678;2023-07-02T04:20:51;19.70;99.90
42979;DHT22;28616;44.746;19.678;2023-07-02T04:23:17;19.70;99.90
42979;DHT22;28616;44.746;19.678;2023-07-02T04:25:43;19.70;99.90
42979;DHT22;28616;44.746;19.678;2023-07-02T04:28:09;19.70;99.90
42979;DHT22;28616;44.746;19.678;2023-07-02T04:30:34;19.70;99.90
42979;DHT22;28616;44.746;19.678;2023-07-02T04:33:00;19.80;99.90
42979;DHT22;28616;44.746;19.678;2023-07-02T04:35:26;19.80;99.90
42979;DHT22;28616;44.746;19.678;2023-07-02T04:37:52;19.80;99.90
42979;DHT22;28616;44.746;19.678;2023-07-02T04:40:18;19.80;99.90
42979;DHT22;28616;44.746;19.678;2023-07-02T04:42:44;19.70;99.90
42979;DHT22;28616;44.746;19.678;2023-07-02T04:45:14;19.70;99.90
42979;DHT22;28616;44.746;19.678;2023-07-02T04:47:43;19.80;99.90
42979;DHT22;28616;44.746;19.678;2023-07-02T04:50:09;19.80;99.90
42979;DHT22;28616;44.746;19.678;2023-07-02T04:52:35;19.80;99.90
42979;DHT22;28616;44.746;19.678;2023-07-02T04:55:02;19.80;99.90
42979;DHT22;28616;44.746;19.678;2023-07-02T04:57:28;20.00;99.90
42979;DHT22;28616;44.746;19.678;2023-07-02T04:59:54;20.00;99.90
42979;DHT22;28616;44.746;19.678;2023-07-02T05:02:20;20.10;99.90
42979;DHT22;28616;44.746;19.678;2023-07-02T05:04:46;20.10;99.90
42979;DHT22;28616;44.746;19.678;2023-07-02T05:07:11;20.20;99.90
42979;DHT22;28616;44.746;19.678;2023-07-02T05:09:37;20.30;99.90
42979;DHT22;28616;44.746;19.678;2023-07-02T05:12:03;20.30;99.90
42979;DHT22;28616;44.746;19.678;2023-07-02T05:14:29;20.30;99.90
42979;DHT22;28616;44.746;19.678;2023-07-02T05:16:55;20.30;99.90
42979;DHT22;28616;44.746;19.678;2023-07-02T05:19:21;20.40;99.90
42979;DHT22;28616;44.746;19.678;2023-07-02T05:21:46;20.40;99.90
42979;DHT22;28616;44.746;19.678;2023-07-02T05:24:12;20.30;99.90
42979;DHT22;28616;44.746;19.678;2023-07-02T05:26:38;20.40;99.90
42979;DHT22;28616;44.746;19.678;2023-07-02T05:29:04;20.50;99.90
42979;DHT22;28616;44.746;19.678;2023-07-02T05:31:30;20.60;99.90
42979;DHT22;28616;44.746;19.678;2023-07-02T05:33:56;20.60;99.90
42979;DHT22;28616;44.746;19.678;2023-07-02T05:36:22;20.80;99.90
42979;DHT22;28616;44.746;19.678;2023-07-02T05:38:48;20.80;99.90
42979;DHT22;28616;44.746;19.678;2023-07-02T05:41:23;21.00;99.90
42979;DHT22;28616;44.746;19.678;2023-07-02T05:43:49;21.00;99.90
42979;DHT22;28616;44.746;19.678;2023-07-02T05:46:15;21.00;99.90
42979;DHT22;28616;44.746;19.678;2023-07-02T05:48:41;21.10;99.90
42979;DHT22;28616;44.746;19.678;2023-07-02T05:51:08;21.20;99.90
42979;DHT22;28616;44.746;19.678;2023-07-02T05:53:34;21.20;99.90
42979;DHT22;28616;44.746;19.678;2023-07-02T05:56:00;21.30;99.90
42979;DHT22;28616;44.746;19.678;2023-07-02T05:58:25;21.40;99.90
42979;DHT22;28616;44.746;19.678;2023-07-02T06:00:51;21.40;99.90
42979;DHT22;28616;44.746;19.678;2023-07-02T06:03:18;21.50;99.90
42979;DHT22;28616;44.746;19.678;2023-07-02T06:05:50;21.70;99.90
42979;DHT22;28616;44.746;19.678;2023-07-02T06:08:17;22.00;99.90
42979;DHT22;28616;44.746;19.678;2023-07-02T06:10:47;21.90;99.90
42979;DHT22;28616;44.746;19.678;2023-07-02T06:13:13;22.00;99.90
42979;DHT22;28616;44.746;19.678;2023-07-02T06:15:39;22.10;99.90
42979;DHT22;28616;44.746;19.678;2023-07-02T19:54:24;22.80;99.90
42979;DHT22;28616;44.746;19.678;2023-07-02T19:56:51;22.80;99.90
42979;DHT22;28616;44.746;19.678;2023-07-02T19:59:17;22.70;99.90
42979;DHT22;28616;44.746;19.678;2023-07-02T20:01:43;22.70;99.90
42979;DHT22;28616;44.746;19.678;2023-07-02T20:04:18;22.70;99.90
42979;DHT22;28616;44.746;19.678;2023-07-02T20:06:45;22.70;99.90
42979;DHT22;28616;44.746;19.678;2023-07-02T20:09:11;22.60;99.90
42979;DHT22;28616;44.746;19.678;2023-07-02T20:11:37;22.60;99.90
42979;DHT22;28616;44.746;19.678;2023-07-02T20:14:03;22.50;99.90
42979;DHT22;28616;44.746;19.678;2023-07-02T20:16:29;22.50;99.90
42979;DHT22;28616;44.746;19.678;2023-07-02T20:18:54;22.50;99.90
42979;DHT22;28616;44.746;19.678;2023-07-02T20:21:21;22.50;99.90
42979;DHT22;28616;44.746;19.678;2023-07-02T20:23:46;22.50;99.90
42979;DHT22;28616;44.746;19.678;2023-07-02T20:26:13;22.40;99.90
42979;DHT22;28616;44.746;19.678;2023-07-02T20:28:40;22.30;99.90
42979;DHT22;28616;44.746;19.678;2023-07-02T20:31:06;22.30;99.90
42979;DHT22;28616;44.746;19.678;2023-07-02T20:33:31;22.30;99.90
42979;DHT22;28616;44.746;19.678;2023-07-02T20:35:58;22.30;99.90
42979;DHT22;28616;44.746;19.678;2023-07-02T20:38:24;22.30;99.90
42979;DHT22;28616;44.746;19.678;2023-07-02T20:40:58;22.20;99.90
42979;DHT22;28616;44.746;19.678;2023-07-02T20:43:32;22.20;99.90
42979;DHT22;28616;44.746;19.678;2023-07-02T20:46:06;22.20;99.90
42979;DHT22;28616;44.746;19.678;2023-07-02T20:48:32;22.20;99.90
42979;DHT22;28616;44.746;19.678;2023-07-02T20:51:02;22.20;99.90
42979;DHT22;28616;44.746;19.678;2023-07-02T20:53:28;22.20;99.90
42979;DHT22;28616;44.746;19.678;2023-07-02T20:55:54;22.20;99.90
42979;DHT22;28616;44.746;19.678;2023-07-02T20:58:20;22.20;99.90
42979;DHT22;28616;44.746;19.678;2023-07-02T21:00:46;22.20;99.90
42979;DHT22;28616;44.746;19.678;2023-07-02T21:03:12;22.10;99.90
42979;DHT22;28616;44.746;19.678;2023-07-02T21:05:38;22.00;99.90
42979;DHT22;28616;44.746;19.678;2023-07-02T21:08:04;22.00;99.90
42979;DHT22;28616;44.746;19.678;2023-07-02T21:10:29;22.00;99.90
42979;DHT22;28616;44.746;19.678;2023-07-02T21:12:55;22.00;99.90
42979;DHT22;28616;44.746;19.678;2023-07-02T21:15:21;21.90;99.90
42979;DHT22;28616;44.746;19.678;2023-07-02T21:17:49;21.90;99.90
42979;DHT22;28616;44.746;19.678;2023-07-02T21:20:16;21.80;99.90
42979;DHT22;28616;44.746;19.678;2023-07-02T21:22:41;21.80;99.90
42979;DHT22;28616;44.746;19.678;2023-07-02T21:25:07;21.70;99.90
42979;DHT22;28616;44.746;19.678;2023-07-02T21:27:34;21.70;99.90
42979;DHT22;28616;44.746;19.678;2023-07-02T21:30:01;21.60;99.90
42979;DHT22;28616;44.746;19.678;2023-07-02T21:32:27;21.60;99.90
42979;DHT22;28616;44.746;19.678;2023-07-02T21:34:53;21.50;99.90
42979;DHT22;28616;44.746;19.678;2023-07-02T21:37:21;21.50;99.90
42979;DHT22;28616;44.746;19.678;2023-07-02T21:39:47;21.50;99.90
42979;DHT22;28616;44.746;19.678;2023-07-02T21:42:13;21.40;99.90
42979;DHT22;28616;44.746;19.678;2023-07-02T21:44:38;21.40;99.90
42979;DHT22;28616;44.746;19.678;2023-07-02T21:47:04;21.40;99.90
42979;DHT22;28616;44.746;19.678;2023-07-02T21:49:30;21.40;99.90
42979;DHT22;28616;44.746;19.678;2023-07-02T21:51:56;21.30;99.90
42979;DHT22;28616;44.746;19.678;2023-07-02T21:54:22;21.30;99.90
42979;DHT22;28616;44.746;19.678;2023-07-02T21:56:48;21.40;99.90
42979;DHT22;28616;44.746;19.678;2023-07-02T21:59:13;21.30;99.90
42979;DHT22;28616;44.746;19.678;2023-07-02T22:01:39;21.30;99.90
42979;DHT22;28616;44.746;19.678;2023-07-02T22:04:05;21.20;99.90
42979;DHT22;28616;44.746;19.678;2023-07-02T22:06:31;21.20;99.90
42979;DHT22;28616;44.746;19.678;2023-07-02T22:08:57;21.20;99.90
42979;DHT22;28616;44.746;19.678;2023-07-02T22:11:22;21.20;99.90
42979;DHT22;28616;44.746;19.678;2023-07-02T22:13:53;21.10;99.90
42979;DHT22;28616;44.746;19.678;2023-07-02T22:16:19;21.10;99.90
42979;DHT22;28616;44.746;19.678;2023-07-02T22:18:45;21.20;99.90
42979;DHT22;28616;44.746;19.678;2023-07-02T22:21:11;21.10;99.90
42979;DHT22;28616;44.746;19.678;2023-07-02T22:23:37;21.10;99.90
42979;DHT22;28616;44.746;19.678;2023-07-02T22:26:03;21.10;99.90
42979;DHT22;28616;44.746;19.678;2023-07-02T22:28:29;21.20;99.90
42979;DHT22;28616;44.746;19.678;2023-07-02T22:30:55;21.20;99.90
42979;DHT22;28616;44.746;19.678;2023-07-02T22:33:21;21.20;99.90
42979;DHT22;28616;44.746;19.678;2023-07-02T22:35:47;21.20;99.90
42979;DHT22;28616;44.746;19.678;2023-07-02T22:38:13;21.20;99.90
42979;DHT22;28616;44.746;19.678;2023-07-02T22:40:38;21.20;99.90
42979;DHT22;28616;44.746;19.678;2023-07-02T22:43:04;21.20;99.90
42979;DHT22;28616;44.746;19.678;2023-07-02T22:45:30;21.20;99.90
42979;DHT22;28616;44.746;19.678;2023-07-02T22:47:57;21.20;99.90
42979;DHT22;28616;44.746;19.678;2023-07-02T22:50:23;21.20;99.90
42979;DHT22;28616;44.746;19.678;2023-07-02T22:52:49;21.20;99.90
42979;DHT22;28616;44.746;19.678;2023-07-02T22:55:15;21.20;99.90
42979;DHT22;28616;44.746;19.678;2023-07-02T22:57:41;21.20;99.90
42979;DHT22;28616;44.746;19.678;2023-07-02T23:00:11;21.20;99.90
42979;DHT22;28616;44.746;19.678;2023-07-02T23:02:43;21.20;99.90
42979;DHT22;28616;44.746;19.678;2023-07-02T23:05:14;21.10;99.90
42979;DHT22;28616;44.746;19.678;2023-07-02T23:07:42;21.10;99.90
42979;DHT22;28616;44.746;19.678;2023-07-02T23:10:09;21.00;99.90
42979;DHT22;28616;44.746;19.678;2023-07-02T23:12:49;21.00;99.90
42979;DHT22;28616;44.746;19.678;2023-07-02T23:15:17;21.00;99.90
42979;DHT22;28616;44.746;19.678;2023-07-02T23:17:47;21.00;99.90
42979;DHT22;28616;44.746;19.678;2023-07-02T23:20:13;21.00;99.90
42979;DHT22;28616;44.746;19.678;2023-07-02T23:22:41;21.10;99.90
42979;DHT22;28616;44.746;19.678;2023-07-02T23:25:11;21.10;99.90
42979;DHT22;28616;44.746;19.678;2023-07-02T23:27:39;21.00;99.90
42979;DHT22;28616;44.746;19.678;2023-07-02T23:30:10;21.00;99.90
42979;DHT22;28616;44.746;19.678;2023-07-02T23:32:38;21.00;99.90
42979;DHT22;28616;44.746;19.678;2023-07-02T23:35:06;20.90;99.90
42979;DHT22;28616;44.746;19.678;2023-07-02T23:37:32;20.90;99.90
42979;DHT22;28616;44.746;19.678;2023-07-02T23:40:00;20.90;99.90
42979;DHT22;28616;44.746;19.678;2023-07-02T23:42:26;20.80;99.90
42979;DHT22;28616;44.746;19.678;2023-07-02T23:44:52;20.80;99.90
42979;DHT22;28616;44.746;19.678;2023-07-02T23:47:18;20.80;99.90
42979;DHT22;28616;44.746;19.678;2023-07-02T23:49:44;20.80;99.90
42979;DHT22;28616;44.746;19.678;2023-07-02T23:52:09;20.80;99.90
42979;DHT22;28616;44.746;19.678;2023-07-02T23:54:35;20.70;99.90
42979;DHT22;28616;44.746;19.678;2023-07-02T23:57:01;20.70;99.90
42979;DHT22;28616;44.746;19.678;2023-07-02T23:59:27;20.80;99.90
